createdAt,value
2018-12-07T05:01:35.981Z,10.67
2018-12-07T05:04:03.602Z,8.60
2018-12-07T05:06:31.244Z,7.87
2018-12-07T05:08:58.913Z,7.20
2018-12-07T05:11:27.436Z,7.80
2018-12-07T05:13:55.156Z,6.17
2018-12-07T05:16:22.817Z,6.80
2018-12-07T05:18:50.427Z,6.03
2018-12-07T05:21:17.996Z,9.37
2018-12-07T05:23:45.661Z,7.67
2018-12-07T05:26:13.210Z,6.03
2018-12-07T05:28:41.136Z,8.87
2018-12-07T05:31:09.215Z,8.10
2018-12-07T05:33:36.786Z,6.37
2018-12-07T05:36:05.050Z,7.67
2018-12-07T05:38:33.056Z,7.50
2018-12-07T05:41:01.161Z,8.60
2018-12-07T05:43:28.787Z,7.83
2018-12-07T05:45:56.381Z,6.43
2018-12-07T05:48:24.036Z,8.17
2018-12-07T05:50:51.779Z,7.90
2018-12-07T05:53:19.338Z,6.00
2018-12-07T05:55:47.377Z,8.37
2018-12-07T05:58:14.965Z,6.47
2018-12-07T06:00:42.522Z,8.77
2018-12-07T06:03:10.526Z,6.73
2018-12-07T06:05:38.158Z,6.27
2018-12-07T06:08:05.832Z,6.50
2018-12-07T06:10:33.831Z,5.33
2018-12-07T06:13:01.884Z,6.90
2018-12-07T06:15:30.098Z,6.73
2018-12-07T06:17:57.651Z,5.60
2018-12-07T06:20:25.369Z,5.90
2018-12-07T06:22:53.270Z,6.67
2018-12-07T06:25:21.319Z,5.70
2018-12-07T06:27:48.992Z,5.43
2018-12-07T06:30:16.646Z,6.17
2018-12-07T06:32:44.340Z,5.87
2018-12-07T06:35:11.946Z,4.47
2018-12-07T06:37:39.515Z,6.07
2018-12-07T06:40:07.157Z,6.30
2018-12-07T06:42:34.818Z,6.50
2018-12-07T06:45:02.489Z,7.30
2018-12-07T06:47:30.711Z,7.00
2018-12-07T06:49:58.356Z,9.70
2018-12-07T06:52:26.035Z,6.83
2018-12-07T06:54:53.684Z,7.83
2018-12-07T06:57:21.479Z,6.23
2018-12-07T06:59:49.108Z,8.10
2018-12-07T07:02:16.772Z,6.80
2018-12-07T07:04:44.425Z,6.07
2018-12-07T07:07:12.023Z,7.13
2018-12-07T07:09:40.245Z,6.97
2018-12-07T07:12:07.912Z,4.73
2018-12-07T07:14:35.638Z,6.00
2018-12-07T07:17:03.830Z,7.13
2018-12-07T07:19:31.395Z,6.73
2018-12-07T07:21:59.154Z,6.50
2018-12-07T07:24:27.203Z,6.50
2018-12-07T07:26:54.864Z,7.40
2018-12-07T07:29:22.446Z,8.40
2018-12-07T07:31:50.113Z,9.00
2018-12-07T07:34:17.823Z,7.43
2018-12-07T07:36:45.462Z,7.93
2018-12-07T07:39:13.725Z,8.80
2018-12-07T07:41:41.455Z,11.60
2018-12-07T07:44:09.135Z,10.10
2018-12-07T07:46:37.012Z,11.73
2018-12-07T07:49:04.827Z,6.33
2018-12-07T07:51:32.457Z,6.77
2018-12-07T07:54:00.156Z,10.27
2018-12-07T07:56:27.774Z,8.03
2018-12-07T07:58:55.375Z,9.30
2018-12-07T08:01:23.109Z,8.37
2018-12-07T08:03:50.751Z,9.63
2018-12-07T08:06:18.894Z,9.00
2018-12-07T08:08:47.100Z,9.30
2018-12-07T08:11:14.709Z,11.87
2018-12-07T08:13:42.751Z,7.30
2018-12-07T08:16:10.366Z,12.93
2018-12-07T08:18:38.025Z,9.73
2018-12-07T08:21:05.625Z,9.30
2018-12-07T08:23:33.341Z,7.13
2018-12-07T08:26:00.920Z,7.83
2018-12-07T08:28:28.594Z,8.87
2018-12-07T08:30:56.277Z,6.87
2018-12-07T08:33:24.492Z,6.57
2018-12-07T08:35:52.092Z,8.67
2018-12-07T08:38:19.798Z,6.03
2018-12-07T08:40:47.413Z,6.20
2018-12-07T08:43:15.697Z,7.10
2018-12-07T08:45:43.648Z,7.00
2018-12-07T08:48:11.339Z,5.60
2018-12-07T08:50:39.011Z,5.93
2018-12-07T08:53:06.649Z,8.43
2018-12-07T08:55:34.237Z,8.90
2018-12-07T08:58:01.788Z,4.00
2018-12-07T09:00:29.706Z,7.60
2018-12-07T09:02:57.294Z,5.60
2018-12-07T09:05:25.068Z,6.70
2018-12-07T09:07:53.436Z,7.10
2018-12-07T09:10:21.266Z,5.13
2018-12-07T09:12:48.960Z,5.33
2018-12-07T09:15:16.598Z,4.80
2018-12-07T09:17:44.336Z,5.73
2018-12-07T09:20:11.942Z,4.47
2018-12-07T09:22:39.762Z,1.30
2018-12-07T09:25:07.593Z,2.90
2018-12-07T09:27:35.199Z,2.03
2018-12-07T09:30:02.780Z,3.53
2018-12-07T09:32:30.844Z,7.13
2018-12-07T09:34:58.935Z,1.93
2018-12-07T09:37:26.573Z,3.20
2018-12-07T09:39:54.302Z,4.70
2018-12-07T09:42:22.038Z,2.03
2018-12-07T09:44:49.674Z,5.60
2018-12-07T09:47:17.915Z,5.83
2018-12-07T09:49:46.086Z,5.13
2018-12-07T09:52:13.830Z,3.70
2018-12-07T09:54:41.924Z,5.20
2018-12-07T09:57:09.623Z,4.93
2018-12-07T09:59:37.246Z,7.10
2018-12-07T10:02:05.417Z,4.93
2018-12-07T10:04:32.994Z,5.97
2018-12-07T10:07:00.572Z,4.53
2018-12-07T10:09:28.147Z,5.23
2018-12-07T10:11:55.807Z,3.73
2018-12-07T10:14:23.435Z,3.57
2018-12-07T10:16:51.068Z,6.33
2018-12-07T10:19:18.693Z,5.40
2018-12-07T10:21:46.306Z,5.10
2018-12-07T10:24:13.916Z,4.40
2018-12-07T10:26:41.551Z,4.83
2018-12-07T10:29:09.177Z,5.97
2018-12-07T10:31:36.875Z,4.77
2018-12-07T10:34:04.997Z,5.03
2018-12-07T10:36:32.607Z,4.87
2018-12-07T10:39:00.219Z,3.43
2018-12-07T10:41:27.828Z,7.03
2018-12-07T10:43:55.386Z,3.03
2018-12-07T10:46:23.019Z,2.90
2018-12-07T10:48:51.357Z,4.03
2018-12-07T10:51:18.991Z,5.23
2018-12-07T10:53:46.817Z,3.70
2018-12-07T10:56:14.448Z,3.20
2018-12-07T10:58:42.042Z,4.47
2018-12-07T11:01:14.954Z,4.50
2018-12-07T11:03:47.984Z,4.90
2018-12-07T11:06:20.997Z,4.60
2018-12-07T11:08:53.884Z,6.57
2018-12-07T11:11:26.816Z,5.37
2018-12-07T11:13:59.835Z,6.47
2018-12-07T11:16:32.896Z,3.83
2018-12-07T11:19:05.816Z,4.40
2018-12-07T11:21:38.663Z,1.30
2018-12-07T11:24:11.487Z,4.70
2018-12-07T11:26:44.469Z,2.20
2018-12-07T11:29:16.372Z,1.90
2018-12-07T11:31:49.360Z,6.60
2018-12-07T11:34:21.131Z,3.70
2018-12-07T11:36:48.785Z,2.80
2018-12-07T11:39:16.413Z,5.17
2018-12-07T11:41:44.121Z,2.47
2018-12-07T11:44:11.760Z,4.17
2018-12-07T11:46:39.405Z,3.40
2018-12-07T11:49:07.114Z,2.30
2018-12-07T11:51:35.501Z,4.57
2018-12-07T11:54:08.577Z,2.73
2018-12-07T11:56:37.267Z,3.10
2018-12-07T11:59:04.960Z,2.60
2018-12-07T12:01:35.571Z,3.27
2018-12-07T12:04:03.584Z,2.93
2018-12-07T12:06:31.183Z,2.40
2018-12-07T12:08:58.828Z,3.30
2018-12-07T12:11:26.533Z,6.53
2018-12-07T12:13:54.155Z,3.13
2018-12-07T12:16:21.797Z,2.47
2018-12-07T12:18:49.918Z,5.60
2018-12-07T12:21:17.787Z,4.43
2018-12-07T12:23:53.441Z,7.70
2018-12-07T12:26:16.397Z,2.73
2018-12-07T12:28:44.704Z,3.20
2018-12-07T12:31:12.340Z,2.63
2018-12-07T12:33:39.994Z,3.50
2018-12-07T12:36:07.718Z,1.97
2018-12-07T12:38:35.374Z,4.73
2018-12-07T12:41:03.323Z,2.40
2018-12-07T12:43:30.882Z,3.00
2018-12-07T12:45:58.505Z,2.23
2018-12-07T12:48:26.136Z,2.07
2018-12-07T12:50:55.671Z,3.87
2018-12-07T12:53:23.404Z,1.97
2018-12-07T12:55:50.999Z,2.13
2018-12-07T12:58:18.611Z,1.93
2018-12-07T13:00:46.211Z,1.90
2018-12-07T13:03:13.874Z,4.07
2018-12-07T13:05:41.450Z,3.60
2018-12-07T13:08:09.145Z,1.53
2018-12-07T13:10:38.452Z,1.80
2018-12-07T13:13:06.139Z,1.50
2018-12-07T13:15:34.166Z,2.20
2018-12-07T13:18:01.810Z,3.30
2018-12-07T13:31:05.144Z,1.10
2018-12-07T13:33:35.803Z,1.50
2018-12-07T13:36:30.431Z,0.80
2018-12-07T13:38:58.365Z,0.93
2018-12-07T13:41:27.585Z,1.23
2018-12-07T13:43:56.712Z,1.43
2018-12-07T13:46:24.656Z,1.67
2018-12-07T13:48:52.755Z,3.67
2018-12-07T13:51:22.034Z,2.33
2018-12-07T13:53:50.045Z,1.93
2018-12-07T13:56:18.863Z,1.43
2018-12-07T13:58:49.056Z,1.60
2018-12-07T14:01:17.491Z,4.53
2018-12-07T14:03:46.005Z,1.30
2018-12-07T14:06:13.907Z,1.83
2018-12-07T14:08:41.722Z,1.40
2018-12-07T14:11:14.763Z,2.73
2018-12-07T14:13:42.798Z,2.10
2018-12-07T14:16:11.515Z,2.10
2018-12-07T14:18:39.603Z,1.60
2018-12-07T14:21:09.937Z,1.80
2018-12-07T14:23:37.708Z,6.03
2018-12-07T14:26:05.418Z,3.17
2018-12-07T14:28:34.692Z,3.10
2018-12-07T14:31:04.203Z,1.80
2018-12-07T14:33:32.959Z,6.17
2018-12-07T14:36:01.388Z,3.87
2018-12-07T14:38:30.403Z,8.03
2018-12-07T14:40:58.942Z,2.93
2018-12-07T14:43:26.709Z,2.37
2018-12-07T14:45:54.349Z,2.30
2018-12-07T14:48:22.076Z,3.30
2018-12-07T14:50:50.418Z,3.33
2018-12-07T14:53:18.795Z,3.10
2018-12-07T14:55:46.821Z,4.30
2018-12-07T14:58:14.790Z,2.40
2018-12-07T15:00:42.981Z,3.70
2018-12-07T15:03:10.910Z,4.17
2018-12-07T15:05:38.719Z,6.70
2018-12-07T15:08:07.000Z,9.10
2018-12-07T15:10:35.340Z,4.00
2018-12-07T15:13:03.451Z,5.20
2018-12-07T15:15:31.398Z,5.77
2018-12-07T15:17:59.257Z,7.57
2018-12-07T15:20:27.212Z,7.97
2018-12-07T15:22:56.094Z,3.80
2018-12-07T15:25:25.163Z,6.87
2018-12-07T15:27:53.146Z,5.70
2018-12-07T15:30:20.963Z,6.53
2018-12-07T15:32:48.765Z,6.20
2018-12-07T15:35:17.499Z,6.33
2018-12-07T15:37:46.764Z,6.73
2018-12-07T15:40:15.908Z,6.53
2018-12-07T15:42:44.846Z,8.90
2018-12-07T15:45:12.479Z,7.60
2018-12-07T15:47:40.130Z,7.10
2018-12-07T15:50:09.536Z,8.17
2018-12-07T15:52:37.536Z,7.83
2018-12-07T15:55:05.810Z,9.50
2018-12-07T15:57:33.734Z,7.37
2018-12-07T16:00:04.229Z,7.40
2018-12-07T16:02:32.636Z,6.33
2018-12-07T16:05:01.450Z,7.07
2018-12-07T16:07:29.933Z,6.10
2018-12-07T16:09:57.729Z,6.20
2018-12-07T16:12:25.663Z,6.30
2018-12-07T16:14:54.035Z,5.80
2018-12-07T16:17:22.439Z,9.13
2018-12-07T16:19:50.285Z,7.57
2018-12-07T16:22:18.395Z,6.50
2018-12-07T16:24:46.425Z,10.50
2018-12-07T16:27:14.814Z,9.40
2018-12-07T16:29:43.308Z,7.57
2018-12-07T16:32:11.513Z,10.63
2018-12-07T16:34:39.252Z,13.00
2018-12-07T16:37:07.293Z,11.17
2018-12-07T16:39:39.031Z,9.20
2018-12-07T16:42:06.953Z,25.97
2018-12-07T16:44:34.774Z,11.60
2018-12-07T16:47:02.561Z,8.90
2018-12-07T16:49:30.452Z,16.73
2018-12-07T16:52:03.997Z,11.60
2018-12-07T16:54:31.741Z,19.53
2018-12-07T16:56:59.567Z,11.77
2018-12-07T16:59:27.783Z,13.23
2018-12-07T17:01:55.495Z,19.40
2018-12-07T17:04:23.318Z,10.27
2018-12-07T17:06:51.364Z,13.10
2018-12-07T17:09:19.422Z,12.70
2018-12-07T17:11:47.817Z,13.57
2018-12-07T17:14:15.536Z,12.30
2018-12-07T17:16:44.928Z,13.83
2018-12-07T17:19:13.894Z,13.30
2018-12-07T17:21:41.632Z,13.70
2018-12-07T17:24:09.351Z,10.60
2018-12-07T17:26:41.608Z,11.40
2018-12-07T17:29:10.290Z,11.40
2018-12-07T17:31:38.602Z,14.40
2018-12-07T17:34:06.590Z,11.10
2018-12-07T17:36:35.055Z,17.43
2018-12-07T17:39:05.540Z,16.00
2018-12-07T17:41:33.485Z,15.23
2018-12-07T17:44:03.110Z,13.83
2018-12-07T17:46:32.187Z,10.97
2018-12-07T17:49:00.858Z,10.43
2018-12-07T17:51:29.415Z,12.77
2018-12-07T17:53:57.572Z,13.77
2018-12-07T17:56:25.565Z,11.03
2018-12-07T17:58:53.860Z,14.40
2018-12-07T18:01:22.161Z,12.13
2018-12-07T18:03:50.567Z,12.10
2018-12-07T18:06:18.670Z,11.63
2018-12-07T18:08:47.099Z,9.10
2018-12-07T18:11:14.892Z,13.33
2018-12-07T18:13:42.983Z,8.40
2018-12-07T18:16:12.940Z,8.60
2018-12-07T18:18:41.987Z,10.07
2018-12-07T18:21:12.947Z,7.30
2018-12-07T18:23:41.154Z,10.53
2018-12-07T18:26:13.701Z,8.10
2018-12-07T18:28:42.400Z,10.33
2018-12-07T18:31:14.454Z,13.10
2018-12-07T18:33:42.341Z,12.33
2018-12-07T18:36:10.658Z,11.70
2018-12-07T18:38:38.623Z,21.17
2018-12-07T18:41:06.694Z,15.67
2018-12-07T18:43:34.773Z,16.10
2018-12-07T18:46:02.874Z,17.10
2018-12-07T18:48:31.401Z,19.20
2018-12-07T18:50:59.194Z,16.93
2018-12-07T18:53:27.222Z,18.00
2018-12-07T18:55:55.251Z,17.80
2018-12-07T18:58:23.441Z,20.17
2018-12-07T19:00:52.356Z,14.57
2018-12-07T19:03:20.878Z,16.67
2018-12-07T19:05:52.727Z,17.53
2018-12-07T19:08:21.174Z,22.97
2018-12-07T19:10:49.205Z,15.30
2018-12-07T19:13:18.689Z,16.57
2018-12-07T19:15:47.090Z,15.80
2018-12-07T19:18:15.433Z,15.07
2018-12-07T19:20:43.417Z,14.53
2018-12-07T19:23:11.416Z,23.43
2018-12-07T19:25:39.933Z,16.67
2018-12-07T19:28:08.520Z,18.27
2018-12-07T19:30:38.777Z,16.70
2018-12-07T19:33:07.426Z,23.93
2018-12-07T19:35:35.477Z,16.20
2018-12-07T19:38:06.332Z,19.00
2018-12-07T19:40:34.435Z,20.20
2018-12-07T19:43:03.721Z,18.57
2018-12-07T19:45:31.472Z,17.50
2018-12-07T19:48:01.085Z,18.30
2018-12-07T19:50:29.690Z,19.50
2018-12-07T19:52:58.427Z,14.67
2018-12-07T19:55:26.238Z,21.87
2018-12-07T19:57:54.952Z,17.40
2018-12-07T20:00:23.584Z,16.87
2018-12-07T20:02:51.663Z,15.23
2018-12-07T20:05:20.061Z,17.93
2018-12-07T20:07:49.087Z,20.00
2018-12-07T20:10:20.842Z,16.13
2018-12-07T20:12:48.872Z,16.40
2018-12-07T20:15:19.169Z,15.00
2018-12-07T20:17:49.701Z,19.47
2018-12-07T20:20:17.618Z,13.27
2018-12-07T20:22:45.469Z,15.77
2018-12-07T20:25:18.371Z,15.33
2018-12-07T20:27:49.942Z,13.37
2018-12-07T20:30:19.114Z,11.93
2018-12-07T20:32:47.246Z,13.20
2018-12-07T20:35:15.067Z,8.00
2018-12-07T20:37:42.917Z,11.47
2018-12-07T20:40:11.839Z,4.80
2018-12-07T20:42:40.882Z,3.60
2018-12-07T20:45:08.923Z,1.43
2018-12-07T20:47:37.334Z,9.20
2018-12-07T20:50:05.758Z,1.60
2018-12-07T20:52:35.744Z,4.43
2018-12-07T20:55:03.592Z,2.03
2018-12-07T20:57:31.710Z,3.50
2018-12-07T20:59:59.877Z,4.10
2018-12-07T21:02:27.686Z,1.00
2018-12-07T21:04:57.223Z,4.30
2018-12-07T21:07:42.295Z,1.83
2018-12-07T21:10:26.677Z,8.83
2018-12-07T21:13:33.250Z,0.40
2018-12-07T21:17:07.148Z,4.37
2018-12-07T21:19:36.600Z,7.20
2018-12-07T21:22:05.282Z,3.53
2018-12-07T21:24:33.820Z,10.50
2018-12-07T21:27:01.966Z,3.93
2018-12-07T21:29:31.573Z,3.70
2018-12-07T21:32:00.459Z,8.33
2018-12-07T21:34:37.558Z,1.60
2018-12-07T21:37:06.222Z,2.57
2018-12-07T21:39:39.468Z,5.60
2018-12-07T21:42:07.252Z,9.63
2018-12-07T21:44:36.076Z,3.23
2018-12-07T21:47:04.450Z,7.63
2018-12-07T21:49:34.432Z,14.47
2018-12-07T21:52:34.684Z,6.53
2018-12-07T21:55:03.149Z,19.12
2018-12-07T21:57:31.404Z,6.87
2018-12-07T22:00:01.299Z,6.37
2018-12-07T22:02:31.346Z,5.23
2018-12-07T22:04:59.997Z,4.73
2018-12-07T22:07:29.377Z,17.27
2018-12-07T22:09:57.440Z,6.83
2018-12-07T22:12:26.066Z,13.67
2018-12-07T22:14:54.400Z,3.83
2018-12-07T22:17:22.621Z,16.50
2018-12-07T22:19:51.430Z,10.10
2018-12-07T22:22:19.415Z,7.20
2018-12-07T22:24:47.508Z,13.33
2018-12-07T22:27:15.408Z,5.07
2018-12-07T22:29:44.639Z,14.07
2018-12-07T22:32:13.659Z,9.07
2018-12-07T22:34:42.176Z,10.80
2018-12-07T22:37:10.335Z,7.20
2018-12-07T22:39:38.572Z,2.70
2018-12-07T22:42:06.846Z,4.67
2018-12-07T22:44:36.259Z,3.30
2018-12-07T22:47:05.154Z,6.93
2018-12-07T22:49:32.923Z,1.13
2018-12-07T22:52:00.741Z,4.40
2018-12-07T22:54:28.488Z,5.30
2018-12-07T22:56:57.410Z,10.33
2018-12-07T22:59:26.900Z,2.97
2018-12-07T23:01:56.201Z,5.13
2018-12-07T23:04:26.013Z,4.97
2018-12-07T23:06:55.004Z,5.93
2018-12-07T23:09:22.911Z,6.67
2018-12-07T23:11:50.723Z,0.80
2018-12-07T23:14:18.541Z,6.47
2018-12-07T23:16:48.293Z,2.30
2018-12-07T23:19:16.996Z,6.60
2018-12-07T23:21:46.081Z,6.73
